createdAt,value
2023-03-30T00:00:18.747Z,17.80
2023-03-30T00:02:53.888Z,18.83
2023-03-30T00:05:27.800Z,21.15
2023-03-30T00:08:01.156Z,19.10
2023-03-30T00:10:38.595Z,16.48
2023-03-30T00:13:13.061Z,20.60
2023-03-30T00:15:46.477Z,18.00
2023-03-30T00:18:20.064Z,14.55
2023-03-30T00:20:54.158Z,14.85
2023-03-30T00:23:27.565Z,18.42
2023-03-30T00:26:02.445Z,17.45
2023-03-30T00:28:36.334Z,15.88
2023-03-30T00:31:10.778Z,20.15
2023-03-30T00:33:46.941Z,21.73
2023-03-30T00:36:22.417Z,17.17
2023-03-30T00:38:55.842Z,24.27
2023-03-30T00:41:31.551Z,17.25
2023-03-30T00:44:06.994Z,15.98
2023-03-30T00:46:40.398Z,18.67
2023-03-30T00:49:15.069Z,17.30
2023-03-30T00:51:50.808Z,25.60
2023-03-30T00:54:24.171Z,18.80
2023-03-30T00:56:59.128Z,22.35
2023-03-30T00:59:32.588Z,17.45
2023-03-30T01:02:06.277Z,18.00
2023-03-30T01:07:13.522Z,16.92
2023-03-30T01:09:48.118Z,16.77
2023-03-30T01:12:22.982Z,27.90
2023-03-30T01:14:57.466Z,25.55
2023-03-30T01:17:37.489Z,23.65
2023-03-30T01:20:47.852Z,19.42
2023-03-30T01:24:03.983Z,19.00
2023-03-30T01:26:54.555Z,14.32
2023-03-30T01:29:57.075Z,20.23
2023-03-30T01:32:55.568Z,16.05
2023-03-30T01:36:10.753Z,16.58
2023-03-30T01:39:13.289Z,18.50
2023-03-30T01:41:55.929Z,14.80
2023-03-30T01:44:34.181Z,16.58
2023-03-30T01:47:16.870Z,18.45
2023-03-30T01:49:57.341Z,20.42
2023-03-30T01:52:37.030Z,22.42
2023-03-30T01:55:16.654Z,17.90
2023-03-30T01:57:56.616Z,16.35
2023-03-30T02:00:31.051Z,18.85
2023-03-30T02:03:09.001Z,21.88
2023-03-30T02:05:44.919Z,17.98
2023-03-30T02:08:22.812Z,17.85
2023-03-30T02:10:59.618Z,24.95
2023-03-30T02:13:35.132Z,21.60
2023-03-30T02:16:12.822Z,19.83
2023-03-30T02:18:51.552Z,18.65
2023-03-30T02:21:25.099Z,19.98
2023-03-30T02:24:00.041Z,23.83
2023-03-30T02:26:36.911Z,15.77
2023-03-30T02:29:10.407Z,26.85
2023-03-30T02:31:44.616Z,24.02
2023-03-30T02:34:27.548Z,18.92
2023-03-30T02:37:19.624Z,22.30
2023-03-30T02:40:12.594Z,22.00
2023-03-30T02:43:00.124Z,24.75
2023-03-30T02:48:37.757Z,21.65
2023-03-30T02:51:26.350Z,23.13
2023-03-30T02:54:40.086Z,27.27
2023-03-30T02:57:48.056Z,22.42
2023-03-30T03:00:46.208Z,19.75
2023-03-30T03:03:34.024Z,21.92
2023-03-30T03:06:09.460Z,17.77
2023-03-30T03:08:49.629Z,24.80
2023-03-30T03:11:28.950Z,17.67
2023-03-30T03:14:02.501Z,20.25
2023-03-30T03:16:38.673Z,21.40
2023-03-30T03:19:18.980Z,21.55
2023-03-30T03:21:55.327Z,19.30
2023-03-30T03:24:29.180Z,20.45
2023-03-30T03:27:25.966Z,19.52
2023-03-30T03:30:28.136Z,23.05
2023-03-30T03:33:14.177Z,16.92
2023-03-30T03:35:54.285Z,16.77
2023-03-30T03:38:29.467Z,21.95
2023-03-30T03:41:05.087Z,25.15
2023-03-30T03:43:39.010Z,20.55
2023-03-30T03:46:12.865Z,21.50
2023-03-30T03:48:46.395Z,19.08
2023-03-30T03:51:21.339Z,25.85
2023-03-30T03:53:54.727Z,13.85
2023-03-30T03:59:03.628Z,23.90
2023-03-30T04:01:37.161Z,20.30
2023-03-30T04:04:11.009Z,23.33
2023-03-30T04:06:47.307Z,23.60
2023-03-30T04:09:21.647Z,19.48
2023-03-30T04:12:14.969Z,20.60
2023-03-30T04:15:09.681Z,19.65
2023-03-30T04:18:02.100Z,15.32
2023-03-30T04:20:57.179Z,14.45
2023-03-30T04:23:49.080Z,23.50
2023-03-30T04:26:28.470Z,21.85
2023-03-30T04:29:22.344Z,14.85
2023-03-30T04:32:21.049Z,16.45
2023-03-30T04:34:59.978Z,13.32
2023-03-30T04:38:03.598Z,17.20
2023-03-30T04:40:41.130Z,17.33
2023-03-30T04:43:29.310Z,15.55
2023-03-30T04:46:27.102Z,19.60
2023-03-30T04:49:12.305Z,15.70
2023-03-30T04:52:03.954Z,15.40
2023-03-30T04:54:56.180Z,15.57
2023-03-30T04:57:49.472Z,16.02
2023-03-30T05:00:58.653Z,18.85
2023-03-30T05:04:04.576Z,17.63
2023-03-30T05:07:13.305Z,14.68
2023-03-30T05:10:05.976Z,19.70
2023-03-30T05:12:56.859Z,16.92
2023-03-30T05:16:09.515Z,14.05
2023-03-30T05:19:01.325Z,18.75
2023-03-30T05:22:09.815Z,21.92
2023-03-30T05:25:11.290Z,14.95
2023-03-30T05:28:08.920Z,17.42
2023-03-30T05:30:55.241Z,20.00
2023-03-30T05:36:54.142Z,18.20
2023-03-30T05:40:09.496Z,14.65
2023-03-30T05:42:50.675Z,15.60
2023-03-30T05:45:45.389Z,16.35
2023-03-30T05:48:57.008Z,21.85
2023-03-30T05:51:56.911Z,16.17
2023-03-30T05:54:49.054Z,17.13
2023-03-30T05:57:48.469Z,21.83
2023-03-30T06:00:33.332Z,27.25
2023-03-30T06:03:15.870Z,31.00
2023-03-30T06:05:49.544Z,41.28
2023-03-30T06:08:23.059Z,36.45
2023-03-30T06:10:59.151Z,31.20
2023-03-30T06:13:35.539Z,32.63
2023-03-30T06:16:09.672Z,37.95
2023-03-30T06:18:45.353Z,26.38
2023-03-30T06:21:21.712Z,36.42
2023-03-30T06:24:05.990Z,28.85
2023-03-30T06:26:42.519Z,27.55
2023-03-30T06:29:16.396Z,21.45
2023-03-30T06:34:44.399Z,22.13
2023-03-30T06:37:19.557Z,28.08
2023-03-30T06:39:53.594Z,20.45
2023-03-30T06:45:21.397Z,14.10
2023-03-30T06:47:54.933Z,16.90
2023-03-30T06:50:30.621Z,21.05
2023-03-30T06:53:08.486Z,18.10
2023-03-30T06:55:52.603Z,19.10
2023-03-30T06:58:28.728Z,16.13
2023-03-30T07:01:10.718Z,15.20
2023-03-30T07:04:07.389Z,22.55
2023-03-30T07:07:00.951Z,18.45
2023-03-30T07:09:35.865Z,14.20
2023-03-30T07:12:09.503Z,18.60
2023-03-30T07:14:42.989Z,17.30
2023-03-30T07:17:16.672Z,13.35
2023-03-30T07:22:24.868Z,13.85
2023-03-30T07:24:58.783Z,12.52
2023-03-30T07:27:36.161Z,17.42
2023-03-30T07:30:21.112Z,24.40
2023-03-30T07:32:58.954Z,18.52
2023-03-30T07:38:09.848Z,17.20
2023-03-30T07:40:47.561Z,9.15
2023-03-30T07:43:22.586Z,15.85
2023-03-30T07:45:56.711Z,12.75
2023-03-30T07:48:43.935Z,14.10
2023-03-30T07:51:17.777Z,22.00
2023-03-30T07:54:11.854Z,10.23
2023-03-30T07:57:04.147Z,18.13
2023-03-30T08:02:22.229Z,13.75
2023-03-30T08:04:58.505Z,10.10
2023-03-30T08:07:39.660Z,9.73
2023-03-30T08:10:22.942Z,10.63
2023-03-30T08:12:56.469Z,12.07
2023-03-30T08:15:29.975Z,9.20
2023-03-30T08:18:06.815Z,9.48
2023-03-30T08:20:41.548Z,12.75
2023-03-30T08:23:14.970Z,9.52
2023-03-30T08:25:52.659Z,10.52
2023-03-30T08:28:26.605Z,10.98
2023-03-30T08:33:38.488Z,14.00
2023-03-30T08:36:12.643Z,9.73
2023-03-30T08:38:46.281Z,8.55
2023-03-30T08:41:50.239Z,10.43
2023-03-30T08:44:34.901Z,8.68
2023-03-30T08:47:13.588Z,7.47
2023-03-30T08:49:58.080Z,8.95
2023-03-30T08:52:32.776Z,8.93
2023-03-30T08:55:07.024Z,10.25
2023-03-30T08:57:52.609Z,10.55
2023-03-30T09:00:36.184Z,9.10
2023-03-30T09:03:20.379Z,9.63
2023-03-30T09:08:32.013Z,12.55
2023-03-30T09:11:11.450Z,9.70
2023-03-30T09:13:47.367Z,7.13
2023-03-30T09:16:28.490Z,11.60
2023-03-30T09:19:04.237Z,10.73
2023-03-30T09:21:38.336Z,11.25
2023-03-30T09:24:16.114Z,6.38
2023-03-30T09:26:58.642Z,16.05
2023-03-30T09:29:39.164Z,13.43
2023-03-30T09:32:15.930Z,9.93
2023-03-30T09:34:57.210Z,12.18
2023-03-30T09:37:30.690Z,11.98
2023-03-30T09:40:21.226Z,8.32
2023-03-30T09:43:05.924Z,8.98
2023-03-30T09:45:42.130Z,12.32
2023-03-30T09:48:17.248Z,7.65
2023-03-30T09:50:51.293Z,9.63
2023-03-30T09:53:26.915Z,6.88
2023-03-30T09:56:02.245Z,9.50
2023-03-30T09:58:36.175Z,10.63
2023-03-30T10:03:47.786Z,17.73
2023-03-30T10:06:21.673Z,9.40
2023-03-30T10:14:25.216Z,7.53
2023-03-30T10:17:01.915Z,10.10
2023-03-30T10:19:38.379Z,6.85
2023-03-30T10:22:18.874Z,12.55
2023-03-30T10:24:55.215Z,9.18
2023-03-30T10:27:34.852Z,9.23
2023-03-30T10:30:11.884Z,7.07
2023-03-30T10:32:47.361Z,5.15
2023-03-30T10:35:23.728Z,7.18
2023-03-30T10:37:58.792Z,6.20
2023-03-30T10:40:36.752Z,6.15
2023-03-30T10:43:16.032Z,6.30
2023-03-30T10:45:51.698Z,6.47
2023-03-30T10:48:46.618Z,8.38
2023-03-30T10:51:29.857Z,9.15
2023-03-30T10:54:10.144Z,9.18
2023-03-30T10:56:48.023Z,13.15
2023-03-30T11:00:00.228Z,5.22
2023-03-30T11:02:52.779Z,9.27
2023-03-30T11:05:33.085Z,5.57
2023-03-30T11:08:08.823Z,7.90
2023-03-30T11:10:45.583Z,12.10
2023-03-30T11:13:24.793Z,8.63
2023-03-30T11:16:01.387Z,11.35
2023-03-30T11:18:41.246Z,9.68
2023-03-30T11:21:21.374Z,6.80
2023-03-30T11:23:56.463Z,19.73
2023-03-30T11:26:35.462Z,8.07
2023-03-30T11:29:24.238Z,9.10
2023-03-30T11:32:09.415Z,14.77
2023-03-30T11:34:54.570Z,9.13
2023-03-30T11:37:34.103Z,12.10
2023-03-30T11:40:18.585Z,12.65
2023-03-30T11:42:52.423Z,8.05
2023-03-30T11:48:48.555Z,8.63
2023-03-30T11:51:49.259Z,10.95
2023-03-30T11:55:00.133Z,10.65
2023-03-30T11:57:41.425Z,8.18
2023-03-30T12:00:29.239Z,9.85
2023-03-30T12:03:17.218Z,9.80
2023-03-30T12:05:56.173Z,9.73
2023-03-30T12:08:48.022Z,7.00
2023-03-30T12:11:34.131Z,8.93
2023-03-30T12:14:25.109Z,13.02
2023-03-30T12:17:03.396Z,7.50
2023-03-30T12:19:55.586Z,13.77
2023-03-30T12:22:37.203Z,11.85
2023-03-30T12:25:23.699Z,12.88
2023-03-30T12:28:11.203Z,9.50
2023-03-30T12:30:50.129Z,10.68
2023-03-30T12:33:29.292Z,6.88
2023-03-30T12:36:04.226Z,7.97
2023-03-30T12:38:43.534Z,7.13
2023-03-30T12:41:20.793Z,5.70
2023-03-30T12:44:22.885Z,7.30
2023-03-30T12:47:12.057Z,3.72
2023-03-30T12:49:59.576Z,6.80
2023-03-30T12:52:45.294Z,6.65
2023-03-30T12:55:30.026Z,4.28
2023-03-30T12:58:24.429Z,4.88
2023-03-30T13:01:21.358Z,8.80
2023-03-30T13:03:56.297Z,6.13
2023-03-30T13:06:33.927Z,6.28
2023-03-30T13:09:33.423Z,7.82
2023-03-30T13:12:39.480Z,6.18
2023-03-30T13:15:37.552Z,5.47
2023-03-30T13:18:52.986Z,7.78
2023-03-30T13:21:27.571Z,3.03
2023-03-30T13:24:05.451Z,6.70
2023-03-30T13:26:45.569Z,6.53
2023-03-30T13:29:22.477Z,3.75
2023-03-30T13:32:05.915Z,5.15
2023-03-30T13:35:06.163Z,6.03
2023-03-30T13:37:57.120Z,4.53
2023-03-30T13:40:41.987Z,2.70
2023-03-30T13:43:31.964Z,2.95
2023-03-30T13:46:16.872Z,5.87
2023-03-30T13:49:04.097Z,6.60
2023-03-30T13:51:42.448Z,6.63
2023-03-30T13:54:20.827Z,6.35
2023-03-30T13:57:00.741Z,5.68
2023-03-30T13:59:36.852Z,10.38
2023-03-30T14:02:16.293Z,6.32
2023-03-30T14:04:50.590Z,5.80
2023-03-30T14:07:25.695Z,3.38
2023-03-30T14:10:09.861Z,2.65
2023-03-30T14:12:44.018Z,3.83
2023-03-30T14:15:22.231Z,4.00
2023-03-30T14:17:59.019Z,6.70
2023-03-30T14:20:52.666Z,3.85
2023-03-30T14:23:36.494Z,4.80
2023-03-30T14:26:15.825Z,5.97
2023-03-30T14:28:50.764Z,5.70
2023-03-30T14:31:27.337Z,5.45
2023-03-30T14:34:01.975Z,12.93
2023-03-30T14:36:36.025Z,16.23
2023-03-30T14:39:11.828Z,9.73
2023-03-30T14:41:45.329Z,11.40
2023-03-30T14:44:20.842Z,11.85
2023-03-30T14:46:56.760Z,9.85
2023-03-30T14:49:32.918Z,11.02
2023-03-30T14:52:10.538Z,10.15
2023-03-30T14:55:01.787Z,18.80
2023-03-30T15:00:20.542Z,8.60
2023-03-30T15:02:57.781Z,10.93
2023-03-30T15:05:36.748Z,8.25
2023-03-30T15:08:21.287Z,12.23
2023-03-30T15:10:58.117Z,10.38
2023-03-30T15:13:36.962Z,16.98
2023-03-30T15:16:14.107Z,16.35
2023-03-30T15:18:48.038Z,18.67
2023-03-30T15:21:21.720Z,13.80
2023-03-30T15:23:58.555Z,16.52
2023-03-30T15:26:33.619Z,11.43
2023-03-30T15:29:07.182Z,78.53
2023-03-30T15:31:40.656Z,175.20
2023-03-30T15:34:16.830Z,520.53
2023-03-30T15:36:55.833Z,354.42
2023-03-30T15:39:34.776Z,441.05
2023-03-30T15:42:10.549Z,470.10
2023-03-30T15:44:44.040Z,443.55
2023-03-30T15:47:20.508Z,431.02
2023-03-30T15:49:54.058Z,386.38
2023-03-30T15:52:34.167Z,332.58
2023-03-30T15:55:10.043Z,307.70
2023-03-30T15:57:48.826Z,283.85
2023-03-30T16:00:23.851Z,277.73
2023-03-30T16:02:59.113Z,252.48
2023-03-30T16:05:35.155Z,223.23
2023-03-30T16:08:09.780Z,227.98
2023-03-30T16:10:43.223Z,190.13
2023-03-30T16:13:18.145Z,184.40
2023-03-30T16:15:52.111Z,178.18
2023-03-30T16:18:25.665Z,174.30
2023-03-30T16:20:59.092Z,169.80
2023-03-30T16:23:33.686Z,162.95
2023-03-30T16:26:09.835Z,130.98
2023-03-30T16:28:45.924Z,142.85
2023-03-30T16:31:23.148Z,132.75
2023-03-30T16:33:56.806Z,121.22
2023-03-30T16:36:31.518Z,114.13
2023-03-30T16:39:06.697Z,123.88
2023-03-30T16:41:40.042Z,117.22
2023-03-30T16:44:14.961Z,106.22
2023-03-30T16:46:48.734Z,104.63
2023-03-30T16:51:58.305Z,91.47
2023-03-30T16:54:33.038Z,83.50
2023-03-30T16:57:09.819Z,71.80
2023-03-30T16:59:45.269Z,84.00
2023-03-30T17:02:19.523Z,82.57
2023-03-30T17:04:52.992Z,74.05
2023-03-30T17:07:26.653Z,73.18
2023-03-30T17:10:00.728Z,69.93
2023-03-30T17:12:34.102Z,69.47
2023-03-30T17:15:11.288Z,61.50
2023-03-30T17:17:44.744Z,60.78
2023-03-30T17:20:22.066Z,68.90
2023-03-30T17:22:55.923Z,62.92
2023-03-30T17:25:29.404Z,51.55
2023-03-30T17:28:05.628Z,52.58
2023-03-30T17:30:41.904Z,50.80
2023-03-30T17:33:16.116Z,50.30
2023-03-30T17:35:52.331Z,40.28
2023-03-30T17:38:26.145Z,48.88
2023-03-30T17:43:35.579Z,41.93
2023-03-30T17:46:21.712Z,43.25
2023-03-30T17:48:55.566Z,40.65
2023-03-30T17:51:28.932Z,39.45
2023-03-30T17:54:02.397Z,31.88
2023-03-30T17:56:35.822Z,34.92
2023-03-30T17:59:11.748Z,31.55
2023-03-30T18:01:46.551Z,32.38
2023-03-30T18:04:20.971Z,30.20
2023-03-30T18:07:00.659Z,26.30
2023-03-30T18:09:34.500Z,29.50
2023-03-30T18:14:44.766Z,26.95
2023-03-30T18:17:20.687Z,27.95
2023-03-30T18:19:57.930Z,25.75
2023-03-30T18:22:37.836Z,26.00
2023-03-30T18:25:25.634Z,21.52
2023-03-30T18:28:05.637Z,30.02
2023-03-30T18:30:41.994Z,28.63
2023-03-30T18:33:19.238Z,21.58
2023-03-30T18:35:57.260Z,25.05
2023-03-30T18:38:33.365Z,22.60
2023-03-30T18:41:11.850Z,27.67
2023-03-30T18:43:47.142Z,30.75
2023-03-30T18:46:23.025Z,21.52
2023-03-30T18:49:05.135Z,22.83
2023-03-30T18:51:42.562Z,20.45
2023-03-30T18:54:23.356Z,29.38
2023-03-30T18:56:57.691Z,33.28
2023-03-30T18:59:34.095Z,22.58
2023-03-30T19:02:10.545Z,21.52
2023-03-30T19:04:48.456Z,20.58
2023-03-30T19:07:24.612Z,19.10
2023-03-30T19:10:03.097Z,16.80
2023-03-30T19:12:39.906Z,24.80
2023-03-30T19:15:23.972Z,23.55
2023-03-30T19:17:57.757Z,17.25
2023-03-30T19:23:08.233Z,18.05
2023-03-30T19:25:41.900Z,13.73
2023-03-30T19:28:15.735Z,20.70
2023-03-30T19:30:49.696Z,12.38
2023-03-30T19:33:23.064Z,14.50
2023-03-30T19:35:58.817Z,14.75
2023-03-30T19:38:32.546Z,12.63
2023-03-30T19:41:06.843Z,11.20
2023-03-30T19:43:40.616Z,8.63
2023-03-30T19:46:14.201Z,13.55
2023-03-30T19:48:47.565Z,11.82
2023-03-30T19:51:22.303Z,11.23
2023-03-30T19:53:57.026Z,11.13
2023-03-30T19:56:30.383Z,12.55
2023-03-30T19:59:03.743Z,11.80
2023-03-30T20:01:37.165Z,11.45
2023-03-30T20:04:10.637Z,16.25
2023-03-30T20:06:46.008Z,9.55
2023-03-30T20:09:20.889Z,11.30
2023-03-30T20:11:54.265Z,12.35
2023-03-30T20:14:27.677Z,10.13
2023-03-30T20:17:01.497Z,9.20
2023-03-30T20:19:34.957Z,7.28
2023-03-30T20:22:10.082Z,10.65
2023-03-30T20:24:45.076Z,6.97
2023-03-30T20:27:18.822Z,10.02
2023-03-30T20:29:52.221Z,7.00
2023-03-30T20:32:25.782Z,9.30
2023-03-30T20:34:59.171Z,6.75
2023-03-30T20:37:34.070Z,8.23
2023-03-30T20:40:10.308Z,7.22
2023-03-30T20:42:44.411Z,9.52
2023-03-30T20:45:26.025Z,6.30
2023-03-30T20:48:16.321Z,6.45
2023-03-30T20:50:49.739Z,7.55
2023-03-30T20:53:25.335Z,8.07
2023-03-30T20:55:59.647Z,5.78
2023-03-30T20:58:33.434Z,6.13
2023-03-30T21:01:16.833Z,5.57
2023-03-30T21:03:50.477Z,8.93
2023-03-30T21:06:25.209Z,7.68
2023-03-30T21:09:02.351Z,6.55
2023-03-30T21:11:38.926Z,4.75
2023-03-30T21:14:14.335Z,7.38
2023-03-30T21:16:47.883Z,5.07
2023-03-30T21:19:21.485Z,6.28
2023-03-30T21:21:55.037Z,11.73
2023-03-30T21:24:30.436Z,5.90
2023-03-30T21:27:03.833Z,6.68
2023-03-30T21:29:37.252Z,5.90
2023-03-30T21:32:10.973Z,3.00
2023-03-30T21:37:18.102Z,4.75
2023-03-30T21:42:26.796Z,7.15
2023-03-30T21:47:34.573Z,7.80
2023-03-30T21:50:09.518Z,4.55
2023-03-30T21:52:43.005Z,6.82
2023-03-30T21:55:17.817Z,4.05
2023-03-30T21:57:51.188Z,5.32
2023-03-30T22:00:24.628Z,4.43
2023-03-30T22:02:58.076Z,6.78
2023-03-30T22:05:31.543Z,8.80
2023-03-30T22:08:04.936Z,5.82
2023-03-30T22:10:41.077Z,5.75
2023-03-30T22:13:14.421Z,4.20
2023-03-30T22:15:57.113Z,8.30
2023-03-30T22:18:31.338Z,5.18
2023-03-30T22:21:07.828Z,5.45
2023-03-30T22:23:41.812Z,5.70
2023-03-30T22:26:17.370Z,8.05
2023-03-30T22:28:50.838Z,6.93
2023-03-30T22:31:24.228Z,4.43
2023-03-30T22:33:57.618Z,13.55
2023-03-30T22:36:32.199Z,5.10
2023-03-30T22:39:05.697Z,4.18
2023-03-30T22:41:41.133Z,3.30
2023-03-30T22:44:14.696Z,5.55
2023-03-30T22:46:48.099Z,5.25
2023-03-30T22:49:21.554Z,5.93
2023-03-30T22:51:54.940Z,4.03
2023-03-30T22:54:28.372Z,5.28
2023-03-30T22:57:03.232Z,5.53
2023-03-30T22:59:36.692Z,4.95
2023-03-30T23:02:09.970Z,3.08
2023-03-30T23:04:44.137Z,5.90
2023-03-30T23:07:17.529Z,4.18
2023-03-30T23:09:50.848Z,3.85
2023-03-30T23:12:25.613Z,5.18
2023-03-30T23:14:59.340Z,4.65
2023-03-30T23:20:09.909Z,5.05
2023-03-30T23:22:43.558Z,5.70
2023-03-30T23:25:17.783Z,4.25
2023-03-30T23:27:52.513Z,3.53
2023-03-30T23:30:25.986Z,4.45
2023-03-30T23:32:59.524Z,4.65
2023-03-30T23:35:32.929Z,4.68
2023-03-30T23:38:06.271Z,6.18
2023-03-30T23:40:39.611Z,5.28
2023-03-30T23:43:14.321Z,7.10
2023-03-30T23:45:47.667Z,5.22
2023-03-30T23:48:21.219Z,3.80
2023-03-30T23:50:54.701Z,3.35
2023-03-30T23:53:28.208Z,3.00
2023-03-30T23:56:05.702Z,5.30
2023-03-30T23:58:41.382Z,3.80
